createdAt,value
2022-11-28T00:01:44.672Z,16.00
2022-11-28T00:04:14.495Z,13.98
2022-11-28T00:06:49.290Z,17.13
2022-11-28T00:09:19.645Z,16.23
2022-11-28T00:11:49.933Z,14.00
2022-11-28T00:14:20.462Z,16.88
2022-11-28T00:16:50.215Z,19.00
2022-11-28T00:19:18.621Z,13.25
2022-11-28T00:21:46.985Z,15.48
2022-11-28T00:24:15.676Z,12.98
2022-11-28T00:26:44.099Z,12.48
2022-11-28T00:29:13.136Z,13.38
2022-11-28T00:31:44.279Z,10.98
2022-11-28T00:34:16.637Z,17.50
2022-11-28T00:36:47.128Z,10.35
2022-11-28T00:39:17.340Z,14.30
2022-11-28T00:41:46.710Z,8.20
2022-11-28T00:44:15.782Z,11.68
2022-11-28T00:46:44.469Z,11.73
2022-11-28T00:49:14.648Z,10.57
2022-11-28T00:51:44.289Z,11.35
2022-11-28T00:54:14.631Z,13.15
2022-11-28T00:56:43.372Z,9.77
2022-11-28T00:59:11.810Z,13.82
2022-11-28T01:01:43.856Z,12.18
2022-11-28T01:04:17.389Z,13.00
2022-11-28T01:06:47.864Z,13.20
2022-11-28T01:09:19.664Z,14.45
2022-11-28T01:11:50.132Z,12.68
2022-11-28T01:14:21.229Z,10.90
2022-11-28T01:16:49.884Z,11.40
2022-11-28T01:19:20.178Z,10.32
2022-11-28T01:21:48.762Z,9.98
2022-11-28T01:24:17.655Z,11.88
2022-11-28T01:26:46.482Z,8.25
2022-11-28T01:29:16.291Z,11.40
2022-11-28T01:31:44.913Z,10.50
2022-11-28T01:34:13.685Z,9.23
2022-11-28T01:36:43.867Z,9.63
2022-11-28T01:39:12.437Z,9.65
2022-11-28T01:41:40.943Z,10.82
2022-11-28T01:45:06.798Z,11.95
2022-11-28T01:47:36.036Z,12.32
2022-11-28T01:50:07.361Z,12.50
2022-11-28T01:52:39.735Z,9.88
2022-11-28T01:55:10.147Z,12.27
2022-11-28T01:57:38.552Z,15.57
2022-11-28T02:00:11.353Z,11.82
2022-11-28T02:02:46.753Z,11.52
2022-11-28T02:05:17.338Z,13.13
2022-11-28T02:07:48.398Z,14.85
2022-11-28T02:10:22.769Z,12.13
2022-11-28T02:13:31.222Z,13.25
2022-11-28T02:16:18.484Z,11.52
2022-11-28T02:19:05.810Z,11.15
2022-11-28T02:21:46.846Z,9.75
2022-11-28T02:25:28.225Z,12.07
2022-11-28T02:29:03.156Z,12.52
2022-11-28T02:32:15.464Z,11.27
2022-11-28T02:35:06.831Z,12.35
2022-11-28T02:37:44.552Z,11.57
2022-11-28T02:40:22.817Z,10.68
2022-11-28T02:43:03.859Z,10.88
2022-11-28T02:45:43.690Z,10.70
2022-11-28T02:48:21.217Z,9.52
2022-11-28T02:50:56.832Z,8.73
2022-11-28T02:53:28.259Z,9.43
2022-11-28T02:55:59.121Z,12.60
2022-11-28T02:58:27.846Z,9.75
2022-11-28T03:45:48.163Z,8.55
2022-11-28T03:48:25.190Z,8.13
2022-11-28T03:51:01.756Z,10.35
2022-11-28T03:53:41.156Z,10.02
2022-11-28T03:56:15.866Z,8.38
2022-11-28T03:58:50.917Z,10.05
2022-11-28T04:50:21.012Z,10.57
2022-11-28T04:52:55.836Z,12.40
2022-11-28T04:55:33.310Z,11.40
2022-11-28T04:58:10.649Z,11.15
2022-11-28T05:32:41.239Z,6.97
2022-11-28T05:35:10.048Z,7.90
2022-11-28T05:37:39.335Z,11.57
2022-11-28T05:40:12.452Z,7.15
2022-11-28T05:42:40.740Z,7.20
2022-11-28T05:45:10.439Z,8.00
2022-11-28T05:47:40.083Z,7.32
2022-11-28T05:50:09.550Z,7.68
2022-11-28T05:52:37.799Z,9.55
2022-11-28T05:55:07.507Z,6.68
2022-11-28T05:57:35.827Z,8.05
2022-11-28T06:00:04.807Z,6.57
2022-11-28T06:02:41.339Z,5.38
2022-11-28T06:05:27.675Z,6.00
2022-11-28T06:07:58.300Z,6.25
2022-11-28T06:10:26.687Z,7.10
2022-11-28T06:12:54.987Z,6.97
2022-11-28T06:15:23.333Z,5.97
2022-11-28T06:17:52.995Z,6.40
2022-11-28T06:20:21.279Z,5.88
2022-11-28T06:22:49.828Z,6.30
2022-11-28T06:25:18.577Z,5.25
2022-11-28T06:27:48.883Z,9.18
2022-11-28T06:30:17.583Z,7.10
2022-11-28T06:32:45.803Z,6.82
2022-11-28T06:35:15.663Z,6.65
2022-11-28T06:37:43.910Z,7.00
2022-11-28T06:40:12.581Z,10.52
2022-11-28T06:42:40.849Z,9.50
2022-11-28T06:45:10.357Z,6.70
2022-11-28T06:47:38.618Z,6.50
2022-11-28T06:50:10.626Z,8.23
2022-11-28T06:52:40.880Z,7.43
2022-11-28T06:55:10.133Z,11.30
2022-11-28T06:57:39.210Z,7.63
2022-11-28T07:00:09.551Z,10.55
2022-11-28T07:02:37.878Z,9.02
2022-11-28T07:05:07.383Z,9.57
2022-11-28T07:07:45.801Z,8.32
2022-11-28T07:10:23.848Z,7.93
2022-11-28T07:12:55.740Z,9.27
2022-11-28T07:15:24.862Z,8.85
2022-11-28T07:17:53.893Z,7.78
2022-11-28T07:20:22.462Z,8.07
2022-11-28T07:22:50.826Z,7.28
2022-11-28T07:25:19.360Z,8.18
2022-11-28T07:27:49.022Z,7.63
2022-11-28T07:30:17.512Z,7.85
2022-11-28T07:32:46.222Z,7.93
2022-11-28T07:35:14.569Z,6.72
2022-11-28T07:37:42.975Z,8.63
2022-11-28T07:40:13.467Z,8.10
2022-11-28T07:42:42.025Z,7.93
2022-11-28T07:45:13.093Z,6.35
2022-11-28T07:47:41.495Z,8.68
2022-11-28T07:50:10.891Z,7.03
2022-11-28T07:52:39.239Z,7.75
2022-11-28T07:55:08.276Z,6.88
2022-11-28T07:57:36.898Z,6.85
2022-11-28T08:00:06.437Z,6.72
2022-11-28T08:02:42.079Z,7.40
2022-11-28T08:05:11.079Z,7.50
2022-11-28T08:07:39.601Z,6.82
2022-11-28T08:10:10.076Z,6.05
2022-11-28T08:12:38.392Z,5.78
2022-11-28T08:15:07.600Z,7.80
2022-11-28T08:17:36.273Z,6.85
2022-11-28T08:20:07.781Z,5.78
2022-11-28T08:22:36.210Z,6.72
2022-11-28T08:25:04.676Z,8.27
2022-11-28T08:27:33.551Z,7.57
2022-11-28T08:30:01.830Z,5.28
2022-11-28T08:32:31.576Z,5.60
2022-11-28T08:34:59.906Z,8.25
2022-11-28T08:37:29.809Z,6.63
2022-11-28T08:39:58.299Z,6.35
2022-11-28T08:42:26.530Z,6.50
2022-11-28T08:44:54.746Z,6.00
2022-11-28T08:47:22.993Z,6.22
2022-11-28T08:49:51.281Z,6.25
2022-11-28T08:52:19.517Z,4.80
2022-11-28T08:54:49.150Z,6.10
2022-11-28T08:57:17.374Z,6.57
2022-11-28T08:59:45.912Z,5.95
2022-11-28T09:02:14.475Z,5.10
2022-11-28T09:04:43.343Z,5.85
2022-11-28T09:07:11.610Z,5.88
2022-11-28T09:09:39.946Z,4.97
2022-11-28T09:12:09.861Z,4.88
2022-11-28T09:14:38.336Z,4.80
2022-11-28T09:17:06.724Z,5.43
2022-11-28T09:19:35.280Z,5.93
2022-11-28T09:22:03.580Z,6.13
2022-11-28T09:24:31.900Z,5.78
2022-11-28T09:27:00.291Z,5.30
2022-11-28T09:29:30.277Z,4.88
2022-11-28T09:31:58.536Z,5.43
2022-11-28T09:34:27.333Z,5.03
2022-11-28T09:36:57.063Z,4.95
2022-11-28T09:39:30.229Z,5.30
2022-11-28T09:42:12.778Z,5.22
2022-11-28T09:44:49.736Z,5.28
2022-11-28T09:47:26.587Z,5.38
2022-11-28T09:50:00.434Z,4.75
2022-11-28T09:52:37.952Z,4.85
2022-11-28T09:55:17.044Z,5.20
2022-11-28T09:57:49.403Z,5.20
2022-11-28T10:00:22.773Z,4.65
2022-11-28T10:03:26.736Z,5.28
2022-11-28T10:06:07.814Z,5.95
2022-11-28T10:08:47.514Z,5.80
2022-11-28T10:11:31.838Z,7.38
2022-11-28T10:14:10.615Z,5.95
2022-11-28T10:16:54.005Z,6.40
2022-11-28T10:22:31.413Z,7.38
2022-11-28T10:25:11.856Z,7.57
2022-11-28T10:27:41.992Z,9.77
2022-11-28T10:30:19.850Z,6.90
2022-11-28T10:33:00.380Z,8.27
2022-11-28T10:35:39.910Z,10.45
2022-11-28T10:38:14.240Z,5.75
2022-11-28T10:40:51.357Z,6.85
2022-11-28T10:43:35.633Z,6.13
2022-11-28T10:46:30.536Z,8.15
2022-11-28T10:49:09.726Z,7.28
2022-11-28T10:51:50.726Z,14.55
2022-11-28T10:54:31.177Z,6.72
2022-11-28T10:57:09.013Z,5.28
2022-11-28T10:59:54.684Z,9.52
2022-11-28T11:02:32.919Z,5.70
2022-11-28T11:05:02.722Z,6.25
2022-11-28T11:07:33.754Z,8.40
2022-11-28T11:10:15.050Z,5.88
2022-11-28T11:12:44.684Z,6.18
2022-11-28T11:15:24.117Z,6.50
2022-11-28T11:17:52.743Z,5.15
2022-11-28T11:20:36.414Z,5.22
2022-11-28T11:23:16.919Z,4.68
2022-11-28T11:25:53.486Z,6.10
2022-11-28T11:28:41.588Z,5.22
2022-11-28T11:31:20.413Z,6.05
2022-11-28T11:33:51.262Z,4.63
2022-11-28T11:36:30.866Z,4.68
2022-11-28T11:39:21.047Z,4.88
2022-11-28T11:41:51.181Z,5.38
2022-11-28T11:44:35.411Z,4.47
2022-11-28T11:47:06.451Z,5.75
2022-11-28T11:49:38.130Z,6.55
2022-11-28T11:52:16.587Z,5.10
2022-11-28T11:54:59.297Z,4.80
2022-11-28T11:57:34.359Z,4.68
2022-11-28T12:00:08.195Z,4.55
2022-11-28T12:02:47.931Z,6.30
2022-11-28T12:05:21.440Z,5.07
2022-11-28T12:07:59.494Z,5.07
2022-11-28T12:10:31.792Z,4.90
2022-11-28T12:13:00.206Z,4.75
2022-11-28T12:15:41.684Z,4.68
2022-11-28T12:18:24.856Z,5.38
2022-11-28T12:21:14.913Z,4.45
2022-11-28T12:24:09.540Z,5.43
2022-11-28T12:26:46.720Z,4.15
2022-11-28T12:29:42.748Z,5.68
2022-11-28T12:32:34.016Z,4.70
2022-11-28T12:35:22.459Z,5.22
2022-11-28T12:38:17.106Z,5.35
2022-11-28T12:41:05.998Z,4.72
2022-11-28T12:43:51.098Z,5.22
2022-11-28T12:46:29.214Z,4.55
2022-11-28T12:49:14.158Z,4.40
2022-11-28T12:52:01.204Z,4.22
2022-11-28T12:54:45.967Z,4.10
2022-11-28T12:57:27.152Z,4.35
2022-11-28T13:00:08.472Z,4.55
2022-11-28T13:02:50.924Z,5.10
2022-11-28T13:05:31.439Z,4.32
2022-11-28T13:08:23.334Z,4.40
2022-11-28T13:10:59.760Z,4.20
2022-11-28T13:13:37.704Z,4.75
2022-11-28T13:16:23.607Z,5.35
2022-11-28T13:19:01.465Z,4.20
2022-11-28T13:21:39.811Z,4.15
2022-11-28T13:24:24.353Z,4.47
2022-11-28T13:27:01.591Z,5.65
2022-11-28T13:29:39.090Z,4.22
2022-11-28T13:32:16.870Z,4.05
2022-11-28T13:34:46.604Z,4.72
2022-11-28T13:40:21.650Z,4.00
2022-11-28T13:43:06.650Z,3.97
2022-11-28T13:45:41.338Z,3.88
2022-11-28T13:49:13.948Z,4.32
2022-11-28T13:51:43.709Z,4.38
2022-11-28T13:54:46.596Z,4.32
2022-11-28T13:57:31.391Z,4.03
2022-11-28T14:00:20.354Z,4.45
2022-11-28T14:02:53.582Z,4.93
2022-11-28T14:05:34.058Z,4.63
2022-11-28T14:08:03.966Z,3.70
2022-11-28T14:11:05.635Z,4.40
2022-11-28T14:13:52.257Z,3.70
2022-11-28T14:16:36.564Z,3.63
2022-11-28T14:19:31.801Z,4.60
2022-11-28T14:22:18.638Z,4.07
2022-11-28T14:24:57.503Z,4.68
2022-11-28T14:27:30.586Z,4.15
2022-11-28T14:30:00.890Z,4.30
2022-11-28T14:32:36.645Z,5.10
2022-11-28T14:35:16.786Z,4.10
2022-11-28T14:37:55.583Z,3.75
2022-11-28T14:41:11.736Z,4.80
2022-11-28T14:43:42.420Z,3.88
2022-11-28T14:46:30.098Z,3.72
2022-11-28T14:49:23.986Z,4.15
2022-11-28T14:52:40.454Z,4.47
2022-11-28T14:55:23.474Z,4.03
2022-11-28T14:57:58.009Z,3.80
2022-11-28T15:00:31.582Z,6.18
2022-11-28T15:03:24.398Z,5.05
2022-11-28T15:05:55.010Z,4.90
2022-11-28T15:08:58.766Z,5.03
2022-11-28T15:11:46.633Z,7.63
2022-11-28T15:14:22.953Z,9.25
2022-11-28T15:16:57.054Z,9.65
2022-11-28T15:19:29.877Z,8.68
2022-11-28T15:22:00.470Z,10.07
2022-11-28T15:24:34.716Z,11.70
2022-11-28T15:27:24.432Z,11.38
2022-11-28T15:29:58.363Z,9.68
2022-11-28T15:32:30.057Z,11.52
2022-11-28T15:35:06.429Z,11.57
2022-11-28T15:37:38.086Z,10.57
2022-11-28T15:40:21.218Z,10.02
2022-11-28T15:42:51.286Z,11.20
2022-11-28T15:45:26.543Z,11.57
2022-11-28T15:47:57.385Z,10.27
2022-11-28T15:50:29.029Z,9.93
2022-11-28T15:53:00.254Z,11.20
2022-11-28T15:55:37.350Z,10.38
2022-11-28T15:58:21.921Z,11.00
2022-11-28T16:00:58.304Z,11.85
2022-11-28T16:03:32.616Z,12.13
2022-11-28T16:06:01.943Z,10.25
2022-11-28T16:08:36.314Z,11.75
2022-11-28T16:11:09.952Z,12.10
2022-11-28T16:13:40.657Z,13.35
2022-11-28T16:16:17.186Z,10.65
2022-11-28T16:18:47.826Z,10.57
2022-11-28T16:21:18.065Z,13.02
2022-11-28T16:23:46.458Z,11.85
2022-11-28T16:26:31.693Z,13.40
2022-11-28T16:29:14.623Z,13.77
2022-11-28T16:31:47.743Z,11.00
2022-11-28T16:34:16.447Z,9.93
2022-11-28T16:36:48.713Z,13.57
2022-11-28T16:39:18.871Z,11.02
2022-11-28T16:41:54.794Z,11.13
2022-11-28T16:44:26.156Z,10.45
2022-11-28T16:46:57.067Z,10.80
2022-11-28T16:49:37.585Z,12.43
2022-11-28T16:52:47.437Z,8.90
2022-11-28T16:55:39.399Z,11.50
2022-11-28T16:58:16.444Z,11.00
2022-11-28T17:00:51.847Z,9.70
2022-11-28T17:03:53.068Z,13.13
2022-11-28T17:06:33.697Z,9.73
2022-11-28T17:09:02.719Z,12.85
2022-11-28T17:11:35.107Z,9.60
2022-11-28T17:14:10.123Z,11.77
2022-11-28T17:16:45.338Z,11.38
2022-11-28T17:19:13.956Z,10.65
2022-11-28T17:21:46.066Z,9.63
2022-11-28T17:24:19.218Z,15.90
2022-11-28T17:26:48.010Z,10.50
2022-11-28T17:29:17.986Z,8.57
2022-11-28T17:31:48.092Z,8.32
2022-11-28T17:34:18.881Z,9.48
2022-11-28T17:36:48.686Z,10.65
2022-11-28T17:39:18.704Z,8.75
2022-11-28T17:41:48.540Z,9.95
2022-11-28T17:44:22.603Z,9.20
2022-11-28T17:46:52.852Z,8.20
2022-11-28T17:49:22.329Z,8.40
2022-11-28T17:51:51.583Z,9.13
2022-11-28T17:54:23.010Z,10.43
2022-11-28T17:56:53.938Z,7.47
2022-11-28T17:59:26.998Z,8.13
2022-11-28T18:01:55.495Z,9.57
2022-11-28T18:04:26.826Z,9.05
2022-11-28T18:06:55.108Z,9.48
2022-11-28T18:09:23.494Z,6.82
2022-11-28T18:11:51.891Z,8.00
2022-11-28T18:14:20.249Z,8.48
2022-11-28T18:16:50.581Z,7.93
2022-11-28T18:19:19.391Z,7.13
2022-11-28T18:21:47.664Z,6.65
2022-11-28T18:24:16.841Z,7.60
2022-11-28T18:26:45.256Z,9.50
2022-11-28T18:29:14.323Z,9.02
2022-11-28T18:31:44.179Z,9.15
2022-11-28T18:34:13.975Z,7.20
2022-11-28T18:36:42.364Z,9.25
2022-11-28T18:39:15.292Z,8.25
2022-11-28T18:41:43.918Z,7.80
2022-11-28T18:44:12.698Z,7.63
2022-11-28T18:46:41.808Z,8.77
2022-11-28T18:49:15.130Z,7.88
2022-11-28T18:51:43.999Z,9.35
2022-11-28T18:54:20.618Z,8.73
2022-11-28T18:56:50.189Z,12.40
2022-11-28T18:59:18.797Z,10.10
2022-11-28T19:01:47.199Z,9.48
2022-11-28T19:04:18.945Z,9.15
2022-11-28T19:06:48.553Z,11.38
2022-11-28T19:09:18.617Z,10.27
2022-11-28T19:11:48.100Z,11.68
2022-11-28T19:14:17.477Z,10.20
2022-11-28T19:16:49.216Z,10.48
2022-11-28T19:19:19.415Z,11.43
2022-11-28T19:21:50.205Z,11.23
2022-11-28T19:24:19.601Z,13.30
2022-11-28T19:26:47.982Z,9.95
2022-11-28T19:29:16.890Z,11.45
2022-11-28T19:31:45.418Z,11.98
2022-11-28T19:34:16.302Z,14.32
2022-11-28T19:36:50.920Z,10.40
2022-11-28T19:39:22.489Z,8.13
2022-11-28T19:41:52.951Z,11.18
2022-11-28T19:44:23.791Z,8.85
2022-11-28T19:46:53.450Z,12.80
2022-11-28T19:49:24.359Z,14.10
2022-11-28T19:51:58.647Z,9.35
2022-11-28T19:54:27.442Z,13.60
2022-11-28T19:56:57.303Z,11.48
2022-11-28T19:59:27.246Z,17.20
2022-11-28T20:01:55.666Z,16.67
2022-11-28T20:04:24.075Z,14.55
2022-11-28T20:06:54.014Z,15.90
2022-11-28T20:09:22.509Z,15.65
2022-11-28T20:11:51.037Z,13.27
2022-11-28T20:14:20.733Z,13.10
2022-11-28T20:16:49.303Z,13.02
2022-11-28T20:19:18.272Z,29.25
2022-11-28T20:21:47.196Z,19.02
2022-11-28T20:24:19.953Z,16.30
2022-11-28T20:26:50.372Z,17.70
2022-11-28T20:29:21.357Z,19.83
2022-11-28T20:31:51.322Z,11.75
2022-11-28T20:34:20.375Z,16.92
2022-11-28T20:36:53.538Z,13.20
2022-11-28T20:39:23.832Z,12.43
2022-11-28T20:41:52.077Z,12.43
2022-11-28T20:44:22.104Z,14.02
2022-11-28T20:46:50.555Z,12.40
2022-11-28T20:49:19.839Z,16.35
2022-11-28T20:51:50.291Z,12.07
2022-11-28T20:54:19.608Z,13.27
2022-11-28T20:57:19.878Z,11.82
2022-11-28T20:59:37.552Z,12.90
2022-11-28T21:02:05.989Z,16.50
2022-11-28T21:04:36.309Z,12.43
2022-11-28T21:07:04.726Z,13.98
2022-11-28T21:09:33.242Z,14.93
2022-11-28T21:12:03.537Z,10.35
2022-11-28T21:14:32.157Z,11.18
2022-11-28T21:17:01.388Z,14.05
2022-11-28T21:19:30.132Z,13.25
2022-11-28T21:21:58.548Z,13.13
2022-11-28T21:24:27.078Z,11.13
2022-11-28T21:26:55.381Z,12.93
2022-11-28T21:29:25.762Z,13.93
2022-11-28T21:31:55.021Z,13.02
2022-11-28T21:34:23.543Z,8.70
2022-11-28T21:36:51.977Z,12.48
2022-11-28T21:39:22.449Z,10.77
2022-11-28T21:41:51.991Z,12.98
2022-11-28T21:44:20.720Z,13.43
2022-11-28T21:46:51.953Z,14.20
2022-11-28T21:49:20.311Z,11.75
2022-11-28T21:51:48.601Z,10.50
2022-11-28T21:54:16.859Z,15.18
2022-11-28T21:56:46.621Z,8.82
2022-11-28T21:59:16.060Z,12.55
2022-11-28T22:01:44.665Z,11.93
2022-11-28T22:04:14.506Z,12.75
2022-11-28T22:06:43.449Z,13.27
2022-11-28T22:09:12.221Z,12.15
2022-11-28T22:11:41.069Z,14.90
2022-11-28T22:14:09.684Z,10.68
2022-11-28T22:16:38.671Z,12.98
2022-11-28T22:19:07.132Z,15.35
2022-11-28T22:21:55.999Z,9.32
2022-11-28T22:24:25.801Z,15.32
2022-11-28T22:26:56.360Z,15.48
2022-11-28T22:29:25.548Z,14.27
2022-11-28T22:31:55.483Z,13.73
2022-11-28T22:34:24.974Z,13.15
2022-11-28T22:36:55.227Z,14.15
2022-11-28T22:39:23.853Z,11.95
2022-11-28T22:41:52.346Z,13.32
2022-11-28T22:44:22.273Z,14.55
2022-11-28T22:46:50.836Z,14.27
2022-11-28T22:49:20.515Z,13.00
2022-11-28T22:51:53.308Z,12.15
2022-11-28T22:54:23.252Z,12.68
2022-11-28T22:56:53.702Z,14.32
2022-11-28T22:59:22.569Z,11.20
2022-11-28T23:01:51.032Z,12.07
2022-11-28T23:04:19.896Z,13.00
2022-11-28T23:06:48.476Z,12.70
2022-11-28T23:09:16.970Z,12.38
2022-11-28T23:11:47.814Z,12.80
2022-11-28T23:14:16.766Z,13.73
2022-11-28T23:16:46.315Z,12.18
2022-11-28T23:19:18.341Z,12.57
2022-11-28T23:21:49.782Z,11.25
2022-11-28T23:24:23.139Z,11.35
2022-11-28T23:26:53.861Z,10.75
2022-11-28T23:29:22.819Z,12.68
2022-11-28T23:46:27.796Z,10.77
2022-11-28T23:48:56.571Z,11.40
2022-11-28T23:51:27.081Z,12.05
2022-11-28T23:53:55.495Z,10.00
2022-11-28T23:56:26.085Z,8.43
2022-11-28T23:58:57.070Z,11.48
